createdAt,value
2024-04-19T00:02:50.859Z,7.80
2024-04-19T00:16:14.309Z,8.00
2024-04-19T00:19:11.382Z,9.90
2024-04-19T00:22:42.511Z,10.10
2024-04-19T00:26:32.956Z,11.60
2024-04-19T00:30:18.252Z,8.40
2024-04-19T00:33:44.167Z,8.20
2024-04-19T00:48:04.491Z,6.30
2024-04-19T00:51:18.221Z,5.40
2024-04-19T00:54:50.557Z,5.80
2024-04-19T00:58:22.043Z,4.70
2024-04-19T01:02:12.595Z,5.10
2024-04-19T01:16:10.818Z,6.00
2024-04-19T01:19:17.469Z,4.40
2024-04-19T01:22:58.152Z,4.60
2024-04-19T01:26:38.014Z,8.00
2024-04-19T01:30:07.112Z,4.60
2024-04-19T01:33:40.728Z,6.20
2024-04-19T01:37:13.445Z,6.60
2024-04-19T01:41:09.255Z,4.80
2024-04-19T01:44:49.836Z,5.20
2024-04-19T01:58:55.146Z,4.40
2024-04-19T02:01:58.849Z,6.20
2024-04-19T02:05:25.442Z,5.30
2024-04-19T02:09:11.720Z,3.90
2024-04-19T02:13:01.150Z,4.00
2024-04-19T02:16:16.731Z,8.00
2024-04-19T02:20:08.198Z,4.80
2024-04-19T02:23:44.583Z,4.30
2024-04-19T02:27:36.500Z,5.70
2024-04-19T02:31:02.424Z,4.20
2024-04-19T02:34:23.467Z,4.80
2024-04-19T02:38:17.603Z,7.50
2024-04-19T02:41:53.378Z,7.30
2024-04-19T02:55:53.851Z,4.70
2024-04-19T03:09:11.866Z,4.60
2024-04-19T03:12:18.285Z,4.50
2024-04-19T03:16:03.835Z,3.60
2024-04-19T03:19:24.796Z,4.70
2024-04-19T03:23:06.751Z,4.30
2024-04-19T03:37:15.020Z,5.70
2024-04-19T03:40:08.343Z,5.10
2024-04-19T03:44:05.742Z,5.00
2024-04-19T03:47:35.115Z,5.60
2024-04-19T03:51:10.316Z,6.20
2024-04-19T03:54:37.797Z,7.10
2024-04-19T03:58:16.966Z,5.30
2024-04-19T04:02:11.947Z,5.60
2024-04-19T04:05:29.259Z,6.30
2024-04-19T04:19:54.031Z,7.50
2024-04-19T04:33:15.807Z,8.40
2024-04-19T04:36:06.090Z,7.70
2024-04-19T04:50:21.185Z,8.40
2024-04-19T04:53:22.758Z,7.40
2024-04-19T04:56:57.679Z,7.00
2024-04-19T05:00:30.265Z,6.70
2024-04-19T05:04:17.518Z,6.20
2024-04-19T05:08:08.200Z,5.80
2024-04-19T05:11:18.599Z,7.40
2024-04-19T05:15:05.430Z,6.10
2024-04-19T05:56:56.915Z,6.30
2024-04-19T05:59:56.226Z,7.40
2024-04-19T06:14:00.332Z,8.40
2024-04-19T06:27:23.423Z,7.40
2024-04-19T06:40:48.103Z,7.00
2024-04-19T06:43:52.976Z,8.20
2024-04-19T06:47:21.609Z,7.80
2024-04-19T07:01:33.127Z,6.10
2024-04-19T07:14:56.632Z,7.40
2024-04-19T07:28:19.095Z,8.50
2024-04-19T07:31:20.032Z,9.60
2024-04-19T07:34:56.358Z,10.10
2024-04-19T07:38:32.902Z,13.70
2024-04-19T07:42:08.798Z,14.50
2024-04-19T07:45:44.403Z,13.70
2024-04-19T07:49:26.874Z,20.40
2024-04-19T07:53:02.708Z,13.30
2024-04-19T08:07:28.603Z,7.80
2024-04-19T08:10:17.530Z,8.50
2024-04-19T08:13:58.438Z,5.30
2024-04-19T08:17:48.919Z,4.90
2024-04-19T08:21:11.211Z,6.90
2024-04-19T08:24:53.280Z,5.30
2024-04-19T08:28:43.207Z,10.90
2024-04-19T08:32:21.438Z,5.20
2024-04-19T08:35:56.945Z,9.50
2024-04-19T08:39:28.120Z,35.00
2024-04-19T08:43:18.909Z,5.40
2024-04-19T08:46:46.600Z,5.50
2024-04-19T09:00:57.570Z,9.30
2024-04-19T09:04:02.261Z,17.50
2024-04-19T09:07:33.100Z,16.40
2024-04-19T09:11:26.758Z,7.90
2024-04-19T09:14:42.769Z,7.10
2024-04-19T09:18:24.814Z,6.30
2024-04-19T09:22:03.666Z,10.60
2024-04-19T09:25:39.703Z,4.40
2024-04-19T09:29:16.899Z,6.00
2024-04-19T09:33:00.104Z,6.00
2024-04-19T09:36:34.232Z,7.30
2024-04-19T09:40:06.125Z,7.10
2024-04-19T09:54:35.248Z,8.60
2024-04-19T09:57:22.560Z,4.90
2024-04-19T10:01:24.429Z,6.40
2024-04-19T10:04:46.783Z,5.30
2024-04-19T10:08:11.935Z,4.90
2024-04-19T10:12:07.321Z,9.10
2024-04-19T10:15:40.643Z,3.70
2024-04-19T10:19:18.344Z,8.70
2024-04-19T10:33:26.737Z,4.80
2024-04-19T10:36:18.044Z,5.00
2024-04-19T10:50:33.412Z,6.70
2024-04-19T10:53:36.177Z,7.60
2024-04-19T10:57:10.690Z,3.30
2024-04-19T11:00:54.960Z,4.10
2024-04-19T11:04:38.297Z,5.90
2024-04-19T11:07:52.653Z,3.80
2024-04-19T11:11:39.072Z,5.40
2024-04-19T11:15:16.186Z,4.20
2024-04-19T11:19:07.971Z,4.70
2024-04-19T11:22:38.661Z,6.90
2024-04-19T11:26:20.455Z,11.20
2024-04-19T11:29:42.400Z,2.80
2024-04-19T11:44:03.486Z,5.70
2024-04-19T11:47:05.482Z,4.90
2024-04-19T11:50:34.279Z,2.80
2024-04-19T11:54:07.486Z,5.20
2024-04-19T11:57:49.655Z,4.00
2024-04-19T12:12:37.799Z,3.10
2024-04-19T12:25:53.353Z,3.20
2024-04-19T12:28:53.337Z,2.40
2024-04-19T12:32:29.875Z,2.10
2024-04-19T12:35:56.497Z,2.20
2024-04-19T12:39:40.594Z,4.40
2024-04-19T12:43:25.025Z,6.20
2024-04-19T12:47:08.873Z,3.80
2024-04-19T12:50:39.958Z,9.20
2024-04-19T12:54:26.100Z,3.30
2024-04-19T12:57:45.685Z,2.60
2024-04-19T13:01:38.336Z,7.70
2024-04-19T13:05:19.506Z,5.70
2024-04-19T13:08:58.268Z,6.90
2024-04-19T13:12:43.348Z,5.70
2024-04-19T13:16:02.726Z,4.10
2024-04-19T13:19:45.575Z,7.40
2024-04-19T13:34:01.361Z,6.00
2024-04-19T13:36:59.060Z,9.70
2024-04-19T13:40:57.682Z,7.50
2024-04-19T13:44:10.362Z,8.20
2024-04-19T13:47:56.080Z,9.10
2024-04-19T14:01:56.725Z,6.00
2024-04-19T14:05:07.896Z,5.50
2024-04-19T14:08:54.101Z,5.30
2024-04-19T14:12:10.839Z,6.40
2024-04-19T14:15:52.904Z,7.80
2024-04-19T14:19:19.501Z,13.20
2024-04-19T14:22:55.908Z,8.60
2024-04-19T14:37:18.497Z,4.80
2024-04-19T14:40:21.044Z,4.60
2024-04-19T14:54:17.815Z,6.90
2024-04-19T15:07:38.422Z,6.70
2024-04-19T15:21:00.096Z,3.90
2024-04-19T15:23:53.142Z,5.20
2024-04-19T15:38:11.008Z,11.00
2024-04-19T15:51:27.965Z,12.80
2024-04-19T15:54:20.782Z,5.90
2024-04-19T15:58:04.129Z,4.00
2024-04-19T16:01:45.086Z,5.10
2024-04-19T16:05:20.720Z,7.70
2024-04-19T16:08:58.033Z,8.40
2024-04-19T16:23:18.814Z,8.50
2024-04-19T16:36:36.804Z,8.60
2024-04-19T16:39:27.301Z,23.00
2024-04-19T16:43:05.333Z,9.50
2024-04-19T16:46:44.326Z,5.70
2024-04-19T16:50:21.852Z,7.90
2024-04-19T16:53:58.270Z,6.00
2024-04-19T16:57:36.257Z,10.50
2024-04-19T17:01:15.897Z,16.10
2024-04-19T17:04:51.534Z,13.30
2024-04-19T17:08:29.584Z,15.90
2024-04-19T17:12:08.428Z,9.30
2024-04-19T17:15:42.491Z,6.90
2024-04-19T17:19:26.388Z,7.40
2024-04-19T17:23:03.195Z,8.50
2024-04-19T17:26:38.111Z,6.40
2024-04-19T17:30:23.054Z,8.30
2024-04-19T17:33:57.833Z,7.40
2024-04-19T17:37:35.774Z,6.60
2024-04-19T17:41:12.227Z,7.70
2024-04-19T17:44:57.590Z,6.10
2024-04-19T17:48:33.293Z,6.70
2024-04-19T17:52:09.726Z,7.60
2024-04-19T17:55:52.382Z,6.10
2024-04-19T17:59:35.883Z,11.10
2024-04-19T18:03:20.225Z,4.50
2024-04-19T18:06:47.817Z,4.30
2024-04-19T18:10:31.799Z,9.40
2024-04-19T18:14:07.410Z,18.80
2024-04-19T18:17:43.230Z,21.10
2024-04-19T18:21:26.713Z,20.50
2024-04-19T18:25:01.947Z,32.30
2024-04-19T18:28:40.681Z,16.20
2024-04-19T18:32:18.402Z,18.30
2024-04-19T18:35:57.937Z,12.60
2024-04-19T18:39:34.412Z,10.60
2024-04-19T18:43:09.493Z,8.60
2024-04-19T18:46:55.369Z,6.30
2024-04-19T18:50:28.294Z,7.40
2024-04-19T18:54:06.953Z,5.90
2024-04-19T18:57:44.484Z,5.40
2024-04-19T19:01:27.439Z,10.70
2024-04-19T19:05:01.870Z,6.20
2024-04-19T19:08:37.813Z,12.30
2024-04-19T19:12:28.626Z,13.10
2024-04-19T19:15:57.441Z,11.50
2024-04-19T19:19:32.544Z,13.10
2024-04-19T19:23:09.103Z,22.90
2024-04-19T19:26:46.059Z,14.10
2024-04-19T19:30:28.497Z,12.00
2024-04-19T19:34:03.008Z,9.70
2024-04-19T19:37:39.457Z,16.70
2024-04-19T19:41:15.066Z,14.10
2024-04-19T19:44:57.857Z,9.50
2024-04-19T19:48:34.883Z,9.30
2024-04-19T19:52:13.179Z,7.10
2024-04-19T19:55:52.926Z,7.40
2024-04-19T19:59:48.148Z,8.90
2024-04-19T20:03:24.513Z,16.10
2024-04-19T20:06:43.954Z,27.90
2024-04-19T20:10:33.761Z,20.20
2024-04-19T20:14:12.238Z,12.20
2024-04-19T20:17:36.289Z,9.50
2024-04-19T20:21:14.075Z,13.80
2024-04-19T20:24:53.729Z,13.60
2024-04-19T20:28:27.759Z,17.50
2024-04-19T20:32:11.163Z,15.20
2024-04-19T20:35:47.381Z,11.20
2024-04-19T20:39:27.346Z,11.90
2024-04-19T20:43:14.848Z,15.40
2024-04-19T20:46:41.079Z,9.20
2024-04-19T20:50:20.003Z,8.00
2024-04-19T20:53:58.539Z,6.40
2024-04-19T20:57:32.038Z,5.10
2024-04-19T21:01:15.377Z,5.00
2024-04-19T21:04:51.675Z,5.90
2024-04-19T21:08:29.386Z,4.60
2024-04-19T21:12:08.639Z,12.80
2024-04-19T21:16:09.019Z,24.10
2024-04-19T21:19:21.311Z,18.40
2024-04-19T21:23:03.101Z,14.50
2024-04-19T21:26:42.962Z,15.60
2024-04-19T21:30:20.128Z,16.80
2024-04-19T21:33:56.511Z,13.30
2024-04-19T21:37:34.038Z,14.90
2024-04-19T21:41:13.905Z,18.00
2024-04-19T21:44:54.412Z,15.80
2024-04-19T21:48:27.287Z,13.80
2024-04-19T21:52:05.128Z,10.90
2024-04-19T21:55:48.962Z,7.90
2024-04-19T21:59:22.146Z,6.00
2024-04-19T22:02:58.269Z,5.70
2024-04-19T22:06:35.817Z,5.00
2024-04-19T22:10:15.214Z,5.00
2024-04-19T22:13:51.987Z,5.30
2024-04-19T22:17:29.372Z,5.30
2024-04-19T22:21:14.323Z,4.60
2024-04-19T22:24:46.560Z,5.30
2024-04-19T22:28:24.170Z,4.70
2024-04-19T22:32:00.009Z,4.60
2024-04-19T22:35:39.180Z,4.30
2024-04-19T22:39:15.415Z,4.70
2024-04-19T22:42:54.871Z,4.20
2024-04-19T22:46:31.001Z,3.80
2024-04-19T22:50:08.646Z,4.20
2024-04-19T22:53:44.261Z,4.30
2024-04-19T22:57:26.511Z,4.80
2024-04-19T23:01:07.886Z,4.30
2024-04-19T23:04:43.612Z,4.40
2024-04-19T23:08:19.789Z,7.80
2024-04-19T23:12:01.339Z,10.40
2024-04-19T23:15:34.395Z,6.60
2024-04-19T23:19:16.410Z,4.90
2024-04-19T23:23:13.043Z,5.30
2024-04-19T23:26:33.459Z,4.80
2024-04-19T23:30:10.023Z,5.10
2024-04-19T23:33:48.812Z,5.60
2024-04-19T23:37:25.614Z,4.60
2024-04-19T23:41:04.971Z,5.20
2024-04-19T23:44:42.493Z,4.60
2024-04-19T23:48:18.902Z,4.60
2024-04-19T23:51:54.061Z,4.50
2024-04-19T23:55:37.427Z,4.50
2024-04-19T23:59:14.411Z,4.70
